Scroll down
FLIGHT INFORMATION
Seven Three Seven Two Aviation

-17

At Arrival Gate

EBBR
 KBDL
DATE: 2020-10-17
GATE: 120
GATE DEPARTURE: 14:47
TAKEOFF: 15:03
DATE: 2020-10-17
GATE:  -
LANDING: 22:17
GATE ARRIVAL: 22:23
FLIGHT DATA
Crew: 
Speed: 
479 kts
Altitude: 
40,035 ft
Stage Length: 
3,090.4 nm
Block Time: 
7.5 hrs
Flight Time: 
7.2 hrs
Fuel Used: 
37,393 lb
Cleared Route: EBBR D278J DENUT LUMEN BULAM DIBLI RAPIX SUNUP TEBRA KOPUL IDITU IPKUS CPT KENET GAVGO DEZZU DIKAS EVRIN DINIM 5120N 5030N 4940N 4750N PORTI BGR CAM CANAN SHIGY STELA MOLDS TOMES HADUX RW33
TRACK DATA
50,000 ft 1,000 kts
AIRCRAFT INFO AND CUMULATIVE STATS
Aircraft Type: 
B738BBJ2BW
Registration: 
SELCAL: 
CLEH
MSN/LN: 
40118 / 3369
Total Flights: 
21
Total Block Time: 
104.1 hrs
Total Flight Time: 
98.9 hrs
Total Fuel Used: 
552,553 lb
DATALINK LOG | Newest first | Current as of: 2021-09-21 07:49:06
LABEL SEQUENCE CONTENT Dn/Up
QD265622:23 7.3▼ Dn
QC205022:17▼ Dn
2U0730CYYT 171800Z 15007KT 1/4SM R11/1400V2000FT/N R16/2400FT/N -DZ FG VV002 13/13 A3050 RMK FG8 SLP335▲ Up
2U0730KBDL 171851Z 30012KT 10SM CLR 16/M03 A3026 RMK AO2 SLP249 T01561033▲ Up
2S1034KBDL CYYT▼ Dn
2U0939CYUL 171600Z VRB03KT 30SM FEW025 FEW250 10/05 A3024 RMK CF1CI1 CF TR CI TR SLP244▲ Up
2U0939CYYT 171600Z 16009KT 1/4SM R11/2000FT/N R16/2400FT/N -DZ FG VV002 13/13 A3052 RMK FG8 SLP340▲ Up
2U0939EINN 171630Z 06009KT 9999 FEW023 BKN050 12/07 Q1021 NOSIG▲ Up
2U0939KBDL 171651Z 30013KT 10SM FEW040 14/01 A3026 RMK AO2 SLP246 T01390006▲ Up
2U0650CYUL 171600Z VRB03KT 30SM FEW025 FEW250 10/05 A3024 RMK CF1CI1 CF TR CI TR SLP244▲ Up
2U0650CYYT 171600Z 16009KT 1/4SM R11/2000FT/N R16/2400FT/N -DZ FG VV002 13/13 A3052 RMK FG8 SLP340▲ Up
2U0650EINN 171630Z 06009KT 9999 FEW023 BKN050 12/07 Q1021 NOSIG▲ Up
2U0650KBDL 171651Z 30013KT 10SM FEW040 14/01 A3026 RMK AO2 SLP246 T01390006▲ Up
2U5957KBDL 171651Z 30013KT 10SM FEW040 14/01 A3026 RMK AO2 SLP246 T01390006▲ Up
2S1138KBDL EINN CYYT CYUL▼ Dn
2S1137KBDL EINN CYYT CYUL▼ Dn
2S1137KBDL▼ Dn
QB053915:03▼ Dn
QA495914:47 44.8▼ Dn
A32940CLEARED TO KBDL VIA DENU6C DENUT L610 RAPIX L610 KOPUL Q63 CPT UL9 DIKAS P4 EVRIN DINIM NATA PORTI BGR CAM STELA1. SQUAWK 6250.▲ Up
B32940EBBR KBDL BB1017 N737GG J ▼ Dn
Q02333[LINK ACK]▲ Up
Q02333[LINK TEST]▼ Dn


AIRCRAFT HISTORY
FLIGHT DATE FLIGHT NO. ORIGIN DESTINATION CLEARED ROUTE BLOCK TIME FLIGHT TIME FUEL USED PILOT
2021-09-14737GGKBUR KAUS KBUR RAYVE SLAPP YAAPY JETHK AERRO DECAS BLH HEDVI HOBOL ITUCO EWM INK UCOKA DILLO SZAGI LAIKS BOYZZ TRVSS RATTT LAIDY ZEDKU RW36R2.8 hrs2.5 hrs14,212 lbDan Downs
2021-07-16737GGPHNL KBUR PHNL MKK MKK42 CLUTS CEBEN CIVIT FLEXX GITLE GALIP AUDIA MQO HONZK PRPLE XXELL YUTOO TRAVV ROKKR ZEPPE IVINS MIKEI RW085.3 hrs5 hrs29,964 lbDan Downs
2021-03-24737GGPHLI PHNL PHLI OPORE KREEN OLOYI BOOKE SELIC RW08L0.6 hrs0.4 hrs2,849 lb-HIDDEN-
2021-01-30130KHOU PHLI KHOU RETYR MNNKE BOCCK MNURE HAYYY FOWLR JCT KEMPL FST FIGMO ELP ALIBY OLIIN TUS ALMON GBN JUDTH MOHAK HOGGZ BZA HEEDS IPL GWIRE MZB MALIT ROSIN FICKY FOOTS FLITY FIZEL FOMAS FAPIS FITES BYROW DEREC UPP LAVAS NIYIT LNY GRAMY SERAH SAKKI JULLE ALANA OPIHI GECKO KEOLA GRAIL HUPUK NAPUA MORKE NAPUA RW358.9 hrs8.7 hrs49,688 lbDan Downs
2021-01-26737GGKJAC KHOU KJAC KICNE BPI SWEAT CKW KD63U KD51W KA39Y KF27A MQP NNEAL MMAXX EEVAH BEANE CAASE KIDDZ SNIFY QTRBK RVEEE AAHZZ GLUVR CRSTY SEUSS JABBS RW13R3 hrs2.7 hrs13,831 lbDan Downs
2021-01-06737GGKMRY KJAC KMRY PXN MVA PARZZ KU84O KU87Q KU84Q DNW RW192.1 hrs1.8 hrs10,463 lbDan Downs
2020-12-02737GGPHLI KMRY PHLI OLOYI BOOKE SHIGI HNL CKH GRITL BAMBO JOELE MAGGI SOMOH SHARK CLUTS CEBEN CIVIT CORTT CUNDU CREAN CINNY TPCAT SNS RW28L4.9 hrs4.7 hrs26,055 lbDan Downs
2020-12-02737GGKTPA PHLI KTPA SYKES DORMR SIMMR REMIS ROZZI NAITE REDFN LEV PEKON KAPAA IAH CUZZZ PUFER SPURS JCT KEMPL FST FIGMO ELP ALIBY OLIIN TUS ALMON GBN JUDTH MOHAK HOGGZ BZA HEEDS IPL GWIRE MZB ORDER BARMA MALIT ROSIN FICKY FOOTS FLITY FIZEL FOMAS FAPIS FITES BYROW DEREC BONUS PULPS FUNKI HARPO CAMPS KEIKI DUDVE LNY GRAMY SERAH SAKKI JULLE ALANA OPIHI GECKO KEOLA GRAIL HUPUK NAPUA RW3510.8 hrs10.4 hrs61,532 lbDan Downs
2020-11-30737GGKBUR KTPA KBUR ELMOO ITSME PIRRO ADAMM BAYJY TIFNI PDZ YCDIL WBERG BLH SALOM KOFFA BXK SATRN WOBUG DMN EWM JCT SPURS PUFER CUZZZ IAH KAPAA PEKON LEV REDFN NAITE ROZZI REMIS BLOND KTPA4.3 hrs4 hrs22,861 lb-HIDDEN-
2020-11-21737GGPHOG KBUR PHOG HIAKA ROSAH ROSAH EBBER ELOYI ERROT ETNIC ETECO EDSEL EDTOO KL18E LOBER FIM TOAKS RW084.7 hrs4.4 hrs23,061 lbDan Downs
2020-11-177372KCRP PHOG KCRP CRP ICEMN SAT LEJON JCT KEMPL FST FIGMO ELP ALIBY OLIIN TUS ALMON GBN JUDTH MOHAK HOGGZ BZA HEEDS IPL GWIRE MZB ORDER BARMA MALIT ROSIN FICKY FOOTS FLITY FIZEL FOMAS FAPIS FITES FEKIK LNDHY MUNJU HOMAI HOMAI RW028.3 hrs8.1 hrs46,433 lbDan Downs
2020-11-177372TAPA KCRP TAPA ELOPO PJM GABUL SLUGO GUYRO SEKAR GHANN IKBIX SNAKR ALGAE CATFS CRP KCRP5.2 hrs5 hrs26,222 lbDan Downs
2020-11-177372TNCM TAPA TNCM MODOR ELOPO RW070.6 hrs0.4 hrs3,089 lbDan Downs
2020-11-157372CYYZ TNCM CYYZ SAVUR SEKIT RIKEM KEPTA BMPAH AEVON EXTOL MEMMS KODEY ARKKK JFK SHIPP SPDEY DOGRS BLUUU DUMPR ISLES SQUAD DARUX DASER GECAL 2824N06508W BRKZZ DUPAN QNEPA OPAUL YIYYO TRNKY ULUBA PJM AVAKI RW104.2 hrs3.9 hrs20,464 lbDan Downs
2020-11-042201KTPA CYYZ KTPA CAMJO HEPAR TEEEM BLAAN EMCET RYCKI LUNDD ILLSA EWESS RICCS OXMAN CYYZ2.7 hrs2.5 hrs13,555 lbRoberto Stopnicki
2020-10-31737GGSEQM KTPA SEQM QNV D339J NEGAL ENSOL TCO TOKUT MILAT TBG ARNAL EMASA GCM ATUVI UCL XOPLI IKBIX PEAKY RSW ROGAN BRDGE JSTRM PIE LAGOO RW01L4.3 hrs4 hrs21,218 lbGeorge
2020-10-25-0413KPHX SEQM KPHX OLIIN CUU SILAC MTT URVOD TGZ KESLI GABEN OMISO KALPA AUR KAPAN OLISU CAT AMUVO ALTEG ARLEN ELENA ORADA LIB SAINO ORRAL PELDA PULGO PAPIN IRASO UMGOS QIT SEQM6.6 hrs6.3 hrs34,013 lbCharles Harris
2020-10-19PHNL KPHX PHNL MKK BLUSH SETWE FITES FAPIS FOMAS FIZEL FLITY FOOTS FICKY JERKI BLH SCOLE SPINK SNRRA SWOON HYDRR GEELA PUNNT TEICH TESLE FALGO CAGOR JAMIL RW086.1 hrs5.8 hrs32,249 lbGeorge
2020-10-18KORD PHNL 9.2 hrs8.9 hrs51,007 lbGeorge
2020-10-18KBDL KORD KBDL CTR CAM PAYGE PUPPY GONZZ HOZIR CFVXC DUVEP DERLO KITOK TANKO CFSMW FNT EMMMA LTOUR VIO DITCA WLTER RHIVR PAITN WYNDE FIYER ERNNY PAPPI TUBEZ VULCN KURKK BAMBB HAZIL RW28C2.2 hrs2 hrs12,393 lbGeorge
2020-10-17-17EBBR KBDL EBBR D278J DENUT LUMEN BULAM DIBLI RAPIX SUNUP TEBRA KOPUL IDITU IPKUS CPT KENET GAVGO DEZZU DIKAS EVRIN DINIM 5120N 5030N 4940N 4750N PORTI BGR CAM CANAN SHIGY STELA MOLDS TOMES HADUX RW337.5 hrs7.2 hrs37,393 lbDan Downs